Time;durP1;ratioP1;P1;durP2;ratioP2;P2;SDS_P1;SDS_P2;PMS_P1;PMS_P2;Temp;Humidity;BMP_temperature;BMP_pressure;BME280_temperature;BME280_humidity;BME280_pressure;Samples;Min_cycle;Max_cycle;Signal;HPM_P1;HPM_P2
2022/04/18 00:01:53;;;;;;;;;;;;;;;;;;;;;
2022/04/18 00:04:21;;;;;;;;;1.00;1.00;;;;;16.85;50.69;101418.13;6371423;22;67515;-95
2022/04/18 00:06:52;;;;;;;;;1.00;1.00;;;;;16.95;50.77;101440.50;6367696;22;45267;-95
2022/04/18 00:09:25;;;;;;;;;1.00;1.00;;;;;16.83;50.91;101425.09;6367773;22;47473;-95
2022/04/18 00:12:02;;;;;;;;;0.33;0.33;;;;;16.83;50.80;101427.75;6363964;22;45283;-95
2022/04/18 00:15:06;;;;;;;;;;;;;;;;;;;;;
2022/04/18 00:21:11;;;;;;;;;1.00;1.00;;;;;16.86;50.85;101419.91;6300908;22;46414;-96
2022/04/18 00:24:01;;;;;;;;;1.00;1.00;;;;;16.84;51.25;101422.53;6256903;22;45492;-95
2022/04/18 00:27:05;;;;;;;;;;;;;;;;;;;;;
2022/04/18 00:32:29;;;;;;;;;0.00;0.00;;;;;16.64;51.31;101408.66;6238341;22;45775;-96
2022/04/18 00:35:52;;;;;;;;;1.00;1.00;;;;;16.73;51.27;101423.94;6215534;22;45382;-94
2022/04/18 00:38:31;;;;;;;;;;;;;;;;;;;;;
2022/04/18 00:41:46;;;;;;;;;2.00;2.00;;;;;16.67;51.50;101421.09;6239628;22;67976;-96
2022/04/18 00:44:55;;;;;;;;;0.33;0.33;;;;;16.64;51.81;101419.25;6196725;22;48115;-95
2022/04/18 00:47:26;;;;;;;;;2.00;1.00;;;;;16.51;51.92;101397.69;6213347;22;45332;-94
2022/04/18 00:49:54;;;;;;;;;1.00;1.00;;;;;16.53;52.03;101401.28;6214768;22;45409;-94
2022/04/18 00:52:47;;;;;;;;;0.67;0.67;;;;;16.49;52.04;101399.34;6212789;22;45291;-95
2022/04/18 00:59:20;;;;;;;;;;;;;;;;;;;;;
2022/04/18 01:02:33;;;;;;;;;;;;;;;;;;;;;
2022/04/18 01:05:27;;;;;;;;;1.00;1.00;;;;;16.21;52.17;101374.66;6092149;23;70488;-96
2022/04/18 01:07:53;;;;;;;;;1.00;1.00;;;;;16.21;52.19;101381.72;6063526;23;47913;-95
2022/04/18 01:10:18;;;;;;;;;0.00;0.00;;;;;16.26;52.51;101391.59;6038981;23;45665;-96
2022/04/18 01:12:46;;;;;;;;;2.00;1.00;;;;;16.27;54.11;101398.69;6036856;23;45506;-96
2022/04/18 01:15:37;;;;;;;;;1.67;1.00;;;;;16.16;53.02;101386.84;6036649;23;45738;-96
2022/04/18 01:18:18;;;;;;;;;1.00;1.00;;;;;16.08;52.71;101378.69;6042014;23;47989;-96
2022/04/18 01:20:47;;;;;;;;;2.00;1.00;;;;;16.00;53.67;101380.13;6066914;23;45420;-95
2022/04/18 01:23:32;;;;;;;;;1.00;1.00;;;;;15.98;53.05;101375.66;6036438;23;45339;-95
2022/04/18 01:29:39;;;;;;;;;1.00;1.00;;;;;16.01;54.29;101388.13;5946073;23;45829;-95
2022/04/18 01:32:46;;;;;;;;;;;;;;;;;;;;;
2022/04/18 01:35:16;;;;;;;;;1.00;1.00;;;;;15.91;54.08;101386.00;5997663;23;45571;-96
2022/04/18 01:39:09;;;;;;;;;1.00;1.00;;;;;15.84;53.69;101379.63;6094883;23;45396;-95
2022/04/18 01:41:46;;;;;;;;;0.67;0.67;;;;;15.70;54.51;101358.88;6133634;22;45473;-94
2022/04/18 01:45:02;;;;;;;;;;;;;;;;;;;;;
2022/04/18 01:48:16;;;;;;;;;;;;;;;;;;;;;
2022/04/18 01:57:59;;;;;;;;;4.00;1.67;;;;;15.37;55.79;101347.19;5991091;23;45399;-95
2022/04/18 02:00:39;;;;;;;;;2.00;1.00;;;;;15.44;55.97;101366.78;6030615;23;45671;-96
2022/04/18 02:03:34;;;;;;;;;;;;;;;;;;;;;
2022/04/18 02:06:03;;;;;;;;;0.33;0.33;;;;;15.26;56.81;101349.44;6059340;23;75278;-95
2022/04/18 02:08:51;;;;;;;;;1.00;1.00;;;;;15.30;57.15;101361.94;6036091;23;45374;-95
2022/04/18 02:11:20;;;;;;;;;1.00;1.00;;;;;15.19;57.17;101340.38;6034803;23;45480;-95
2022/04/18 02:14:06;;;;;;;;;1.33;1.33;;;;;15.21;56.72;101353.66;6059365;23;45429;-95
2022/04/18 02:16:53;;;;;;;;;2.00;2.00;;;;;15.12;57.77;101333.09;6035820;23;47998;-95
2022/04/18 02:25:24;;;;;;;;;2.00;2.00;;;;;14.97;58.43;101336.94;5943962;23;45521;-96
2022/04/18 02:27:57;;;;;;;;;1.00;1.00;;;;;14.99;57.69;101346.69;5945974;23;47092;-96
2022/04/18 02:30:56;;;;;;;;;;;;;;;;;;;;;
2022/04/18 02:33:51;;;;;;;;;;;;;;;;;;;;;
2022/04/18 02:37:03;;;;;;;;;1.00;1.00;;;;;14.77;58.99;101332.63;6207736;22;68901;-96
2022/04/18 02:40:05;;;;;;;;;1.67;1.67;;;;;14.78;59.62;101345.00;6208745;22;46979;-96
2022/04/18 02:42:45;;;;;;;;;1.67;1.67;;;;;14.71;59.95;101342.16;6179205;22;45377;-96
2022/04/18 02:45:20;;;;;;;;;1.00;1.00;;;;;14.55;59.47;101330.09;6184008;22;45323;-95
2022/04/18 02:47:50;;;;;;;;;2.67;2.67;;;;;14.52;60.17;101328.25;6209093;22;45381;-96
2022/04/18 02:50:56;;;;;;;;;2.00;2.00;;;;;14.43;60.80;101322.56;6182235;22;47578;-95
2022/04/18 02:53:24;;;;;;;;;3.67;2.67;;;;;14.47;60.80;101340.38;6208312;22;45832;-96
2022/04/18 02:55:55;;;;;;;;;1.67;1.00;;;;;14.38;61.06;101334.75;6200717;22;45422;-95
2022/04/18 02:58:50;;;;;;;;;1.00;1.00;;;;;14.27;61.04;101327.28;6182656;22;45646;-95
2022/04/18 03:01:44;;;;;;;;;1.00;1.00;;;;;14.19;61.85;101339.28;6227017;22;47076;-94
2022/04/18 03:04:35;;;;;;;;;;;;;;;;;;;;;
2022/04/18 03:07:35;;;;;;;;;2.33;1.00;;;;;13.98;62.62;101321.75;6334117;22;68700;-95
2022/04/18 03:10:18;;;;;;;;;;;;;;;;;;;;;
2022/04/18 03:12:47;;;;;;;;;3.33;3.33;;;;;13.92;63.08;101332.03;6333857;22;75357;-96
2022/04/18 03:16:03;;;;;;;;;;;;;;;;;;;;;
2022/04/18 03:18:40;;;;;;;;;3.00;3.00;;;;;13.70;63.51;101310.06;6147750;23;69635;-96
2022/04/18 03:21:13;;;;;;;;;3.33;3.00;;;;;13.73;63.98;101329.56;6125538;23;45479;-96
2022/04/18 03:23:44;;;;;;;;;4.00;2.00;;;;;13.68;64.25;101330.19;6123902;23;46924;-96
2022/04/18 03:26:46;;;;;;;;;3.33;3.00;;;;;13.58;64.61;101327.16;6153304;23;45547;-96
2022/04/18 03:29:42;;;;;;;;;3.33;3.33;;;;;13.56;64.97;101335.81;6150052;23;45432;-95
2022/04/18 03:32:26;;;;;;;;;2.00;2.00;;;;;13.35;65.56;101311.22;6179121;23;45682;-95
2022/04/18 03:35:05;;;;;;;;;;;;;;;;;;;;;
2022/04/18 03:44:09;;;;;;;;;2.00;2.00;;;;;13.22;65.41;101306.28;6118734;23;45563;-95
2022/04/18 03:47:17;;;;;;;;;4.00;3.00;;;;;13.17;66.17;101303.41;6086829;23;46801;-96
2022/04/18 03:50:21;;;;;;;;;;;;;;;;;;;;;
2022/04/18 03:57:02;;;;;;;;;;;;;;;;;;;;;
2022/04/18 03:59:50;;;;;;;;;3.00;2.00;;;;;13.22;66.68;101330.00;6148624;23;45515;-96
2022/04/18 04:02:58;;;;;;;;;;;;;;;;;;;;;
2022/04/18 04:08:40;;;;;;;;;4.67;2.00;;;;;13.09;67.23;101307.47;6177596;23;45671;-95
2022/04/18 04:11:16;;;;;;;;;3.00;2.00;;;;;13.01;67.92;101299.22;6180145;23;46817;-95
2022/04/18 04:14:18;;;;;;;;;2.00;2.00;;;;;13.11;67.00;101316.34;6178253;23;45334;-96
2022/04/18 04:17:43;;;;;;;;;;;;;;;;;;;;;
2022/04/18 04:20:51;;;;;;;;;3.00;3.00;;;;;13.05;67.84;101319.59;6169298;22;70585;-96
2022/04/18 04:24:15;;;;;;;;;3.00;2.00;;;;;12.89;68.25;101294.28;6212281;22;47970;-94
2022/04/18 04:26:56;;;;;;;;;;;;;;;;;;;;;
2022/04/18 04:29:42;;;;;;;;;3.00;3.00;;;;;12.78;68.84;101292.06;6119477;23;45575;-95
2022/04/18 04:32:54;;;;;;;;;2.00;2.00;;;;;12.84;69.02;101329.25;6101319;23;45403;-94
2022/04/18 04:35:28;;;;;;;;;3.67;2.67;;;;;12.62;69.02;101296.66;6240556;22;46942;-94
2022/04/18 04:38:20;;;;;;;;;1.67;1.67;;;;;12.72;69.74;101323.41;6239097;22;45672;-94
2022/04/18 04:41:19;;;;;;;;;;;;;;;;;;;;;
2022/04/18 04:44:23;;;;;;;;;3.00;2.67;;;;;12.49;70.22;101307.47;6237389;22;70054;-95
2022/04/18 04:47:30;;;;;;;;;;;;;;;;;;;;;
2022/04/18 04:50:35;;;;;;;;;;;;;;;;;;;;;
2022/04/18 04:53:09;;;;;;;;;2.67;2.00;;;;;12.40;71.19;101308.81;6115464;23;68025;-96
2022/04/18 04:55:45;;;;;;;;;2.67;2.67;;;;;12.29;71.27;101299.53;6122533;23;45427;-95
2022/04/18 04:58:33;;;;;;;;;;;;;;;;;;;;;
2022/04/18 05:01:09;;;;;;;;;;;;;;;;;;;;;
2022/04/18 05:03:37;;;;;;;;;3.33;3.00;;;;;12.29;71.75;101312.69;6138243;23;68514;-94
2022/04/18 05:06:05;;;;;;;;;3.00;2.00;;;;;12.25;72.17;101309.00;6124145;23;45505;-95
2022/04/18 05:08:48;;;;;;;;;2.67;2.33;;;;;12.31;72.09;101333.81;6147569;23;46977;-94
2022/04/18 05:11:19;;;;;;;;;2.67;2.67;;;;;12.24;72.91;101311.56;6150265;23;45326;-96
2022/04/18 05:13:56;;;;;;;;;2.00;1.00;;;;;12.10;72.87;101302.97;6124867;23;45592;-95
2022/04/18 05:16:56;;;;;;;;;3.00;3.00;;;;;12.12;73.01;101309.19;6149775;23;45592;-95
2022/04/18 05:19:27;;;;;;;;;2.67;2.00;;;;;12.05;73.47;101298.41;6150173;23;47064;-95
2022/04/18 05:22:19;;;;;;;;;3.00;3.00;;;;;12.04;73.46;101304.47;6150136;23;45723;-94
2022/04/18 05:24:45;;;;;;;;;5.67;2.00;;;;;12.11;73.72;101315.31;6224092;22;45299;-94
2022/04/18 05:27:21;;;;;;;;;3.00;2.00;;;;;12.18;74.09;101333.22;6239669;22;45243;-96
2022/04/18 05:29:57;;;;;;;;;;;;;;;;;;;;;
2022/04/18 05:32:58;;;;;;;;;;;;;;;;;;;;;
2022/04/18 05:35:28;;;;;;;;;2.33;2.00;;;;;12.24;74.51;101349.28;6240779;22;67883;-95
2022/04/18 05:37:53;;;;;;;;;4.33;3.00;;;;;12.12;74.91;101320.63;6243935;22;45290;-95
2022/04/18 05:40:33;;;;;;;;;4.00;4.00;;;;;12.25;75.38;101329.16;6241098;22;47952;-95
2022/04/18 05:43:02;;;;;;;;;2.33;2.00;;;;;12.44;75.89;101352.00;6224509;22;45336;-96
2022/04/18 05:45:29;;;;;;;;;4.00;4.00;;;;;12.51;76.02;101353.19;6248497;22;45359;-95
2022/04/18 05:47:55;;;;;;;;;2.00;2.00;;;;;12.55;75.94;101341.09;6246918;22;45411;-96
2022/04/18 05:50:20;;;;;;;;;7.67;5.00;;;;;12.65;76.32;101340.69;6246698;22;47049;-95
2022/04/18 05:52:47;;;;;;;;;9.25;5.75;;;;;12.76;76.60;101337.59;6248009;22;45704;-95
2022/04/18 05:55:13;;;;;;;;;8.00;6.75;;;;;12.77;77.52;101327.16;6246674;22;45310;-94
2022/04/18 05:57:38;;;;;;;;;8.00;5.33;;;;;12.84;77.79;101328.34;6247162;22;45765;-96
2022/04/18 06:00:05;;;;;;;;;8.50;7.25;;;;;12.95;78.30;101340.28;6246659;22;47162;-96
2022/04/18 06:02:31;;;;;;;;;6.00;6.00;;;;;13.13;78.94;101344.56;6245614;22;45345;-96
2022/04/18 06:04:59;;;;;;;;;7.75;6.25;;;;;13.20;78.79;101348.34;6245651;22;45482;-96
2022/04/18 06:07:27;;;;;;;;;9.00;6.75;;;;;13.26;78.33;101342.47;6245994;22;45964;-96
2022/04/18 06:09:52;;;;;;;;;9.25;4.50;;;;;13.38;78.78;101352.63;6245934;22;47138;-96
2022/04/18 06:12:23;;;;;;;;;10.50;8.00;;;;;13.47;78.38;101355.69;6245681;22;45315;-96
2022/04/18 06:14:54;;;;;;;;;9.00;7.25;;;;;13.45;77.56;101344.16;6245915;22;45628;-95
2022/04/18 06:17:22;;;;;;;;;11.75;9.75;;;;;13.60;77.50;101369.44;6245245;22;45540;-96
2022/04/18 06:19:49;;;;;;;;;9.00;8.75;;;;;13.72;77.70;101371.69;6245859;22;46893;-95
2022/04/18 06:22:16;;;;;;;;;10.00;10.00;;;;;13.69;77.67;101350.44;6245514;22;45796;-96
2022/04/18 06:24:44;;;;;;;;;12.00;10.50;;;;;13.74;78.25;101344.53;6246000;22;45417;-96
2022/04/18 06:27:15;;;;;;;;;10.25;9.00;;;;;13.83;79.21;101329.94;6245915;22;45448;-95
2022/04/18 06:29:43;;;;;;;;;13.25;11.75;;;;;14.02;79.21;101343.88;6271912;22;47421;-96
2022/04/18 06:32:09;;;;;;;;;12.75;11.00;;;;;14.04;78.81;101336.94;6246000;22;45999;-96
2022/04/18 06:34:37;;;;;;;;;12.50;10.00;;;;;14.13;78.94;101350.50;6271163;22;45344;-96
2022/04/18 06:37:08;;;;;;;;;11.75;9.00;;;;;14.21;78.75;101350.81;6246682;22;45647;-96
2022/04/18 06:39:34;;;;;;;;;12.00;8.00;;;;;14.20;78.91;101343.69;6246463;22;47082;-95
2022/04/18 06:42:06;;;;;;;;;12.00;10.50;;;;;14.33;78.76;101349.50;6271781;22;45473;-95
2022/04/18 06:44:40;;;;;;;;;12.25;9.00;;;;;14.37;78.82;101340.84;6245949;22;45783;-96
2022/04/18 06:47:05;;;;;;;;;8.50;8.00;;;;;14.57;78.58;101360.13;6245809;22;45396;-96
2022/04/18 06:50:25;;;;;;;;;9.75;9.75;;;;;14.59;78.06;101361.06;6246495;22;47043;-96
2022/04/18 06:58:30;;;;;;;;;9.25;8.75;;;;;14.48;78.05;101350.06;6298806;22;45328;-94
2022/04/18 07:00:56;;;;;;;;;5.75;5.50;;;;;14.57;78.01;101351.28;6373318;22;47893;-96
2022/04/18 07:03:21;;;;;;;;;10.00;8.00;;;;;14.66;78.76;101354.28;6370501;22;45666;-95
2022/04/18 07:05:48;;;;;;;;;5.00;4.00;;;;;14.75;77.66;101354.63;6371545;22;45367;-93
2022/04/18 07:08:15;;;;;;;;;9.25;6.00;;;;;14.88;76.00;101357.78;6372320;22;45605;-95
2022/04/18 07:10:41;;;;;;;;;6.67;6.67;;;;;14.99;75.25;101357.28;6371299;22;47092;-91
2022/04/18 07:13:06;;;;;;;;;4.00;4.00;;;;;15.09;74.96;101364.69;6397385;22;45316;-91
2022/04/18 07:15:32;;;;;;;;;3.00;3.00;;;;;15.15;74.66;101349.03;6367322;22;45705;-88
2022/04/18 07:17:58;;;;;;;;;5.67;4.00;;;;;15.30;74.12;101351.34;6397268;22;45525;-90
2022/04/18 07:20:23;;;;;;;;;5.33;4.00;;;;;15.43;74.14;101359.72;6398541;22;45359;-96
2022/04/18 07:22:48;;;;;;;;;4.00;4.00;;;;;15.50;73.80;101360.81;6399797;22;45416;-86
2022/04/18 07:25:14;;;;;;;;;4.00;4.00;;;;;15.60;72.05;101360.31;6398575;22;45442;-89
2022/04/18 07:27:39;;;;;;;;;7.00;4.00;;;;;15.71;72.24;101363.31;6396831;22;45506;-90
2022/04/18 07:30:05;;;;;;;;;5.33;5.00;;;;;15.78;72.31;101367.06;6368020;22;47861;-88
2022/04/18 07:32:30;;;;;;;;;6.00;6.00;;;;;15.86;71.49;101365.59;6396315;22;45315;-91
2022/04/18 07:35:02;;;;;;;;;6.00;4.00;;;;;16.01;71.85;101371.31;6398035;22;45330;-88
2022/04/18 07:37:27;;;;;;;;;4.50;3.50;;;;;16.11;70.48;101370.81;6367765;22;45389;-89
2022/04/18 07:39:52;;;;;;;;;4.00;4.00;;;;;16.23;70.08;101372.97;6399359;22;52279;-89
2022/04/18 07:42:19;;;;;;;;;6.00;5.67;;;;;16.29;69.91;101373.16;6404312;22;45393;-96
2022/04/18 07:44:44;;;;;;;;;5.33;3.67;;;;;16.41;70.46;101370.00;6373728;22;45649;-93
2022/04/18 07:47:10;;;;;;;;;4.00;4.00;;;;;16.53;70.90;101373.88;6412602;22;57026;-96
2022/04/18 07:49:35;;;;;;;;;6.00;5.00;;;;;16.64;69.89;101368.91;6382352;22;51893;-93
2022/04/18 07:52:00;;;;;;;;;9.33;6.00;;;;;16.77;70.29;101374.56;6372836;22;50135;-93
2022/04/18 07:54:25;;;;;;;;;6.00;5.00;;;;;16.82;69.89;101370.31;6372008;22;45324;-93
2022/04/18 07:56:51;;;;;;;;;6.33;5.00;;;;;16.85;70.54;101370.41;6372788;22;47086;-92
2022/04/18 07:59:16;;;;;;;;;7.00;6.00;;;;;16.85;69.97;101378.34;6373003;22;46869;-96
2022/04/18 08:01:43;;;;;;;;;6.33;5.00;;;;;16.83;70.00;101383.59;6401231;22;45231;-94
2022/04/18 08:04:08;;;;;;;;;6.00;5.67;;;;;16.81;69.05;101385.31;6401995;22;45354;-95
2022/04/18 08:06:33;;;;;;;;;5.67;5.00;;;;;16.74;69.44;101381.59;6399042;22;45399;-94
2022/04/18 08:08:59;;;;;;;;;5.67;4.67;;;;;16.71;69.37;101381.50;6370783;22;46956;-93
2022/04/18 08:11:26;;;;;;;;;5.33;5.33;;;;;16.74;69.13;101380.69;6370369;22;45322;-92
2022/04/18 08:13:52;;;;;;;;;6.00;5.67;;;;;16.83;69.51;101380.03;6370548;22;45625;-93
2022/04/18 08:16:18;;;;;;;;;5.33;5.33;;;;;17.02;70.13;101384.13;6399609;22;45436;-94
2022/04/18 08:18:44;;;;;;;;;5.00;5.00;;;;;17.24;68.85;101382.13;6399668;22;45395;-93
2022/04/18 08:21:15;;;;;;;;;7.00;6.00;;;;;17.48;69.58;101377.44;6372002;22;45512;-94
2022/04/18 08:23:43;;;;;;;;;7.00;5.00;;;;;17.68;68.48;101379.75;6371265;22;45253;-92
2022/04/18 08:26:08;;;;;;;;;5.67;5.67;;;;;17.79;68.34;101372.94;6368760;22;45538;-94
2022/04/18 08:28:34;;;;;;;;;5.67;5.67;;;;;17.90;67.69;101378.53;6370385;22;48191;-94
2022/04/18 08:31:00;;;;;;;;;7.67;6.00;;;;;18.01;67.27;101378.81;6367999;22;45432;-92
2022/04/18 08:33:26;;;;;;;;;5.67;4.00;;;;;18.11;67.44;101379.03;6368982;22;45332;-92
2022/04/18 08:35:51;;;;;;;;;5.33;5.00;;;;;18.21;67.78;101373.09;6400292;22;45422;-93
2022/04/18 08:38:17;;;;;;;;;5.67;5.67;;;;;18.28;67.73;101364.41;6371137;22;47210;-93
2022/04/18 08:40:43;;;;;;;;;9.00;6.67;;;;;18.45;67.08;101382.47;6398172;22;45243;-93
2022/04/18 08:43:10;;;;;;;;;9.00;9.00;;;;;18.52;67.02;101367.59;6400770;22;45245;-94
2022/04/18 08:45:37;;;;;;;;;9.00;6.33;;;;;18.65;67.57;101369.66;6370013;22;45323;-94
2022/04/18 08:53:32;;;;;;;;;9.00;8.67;;;;;18.84;68.05;101371.78;6399608;22;45367;-93
2022/04/18 08:55:59;;;;;;;;;11.33;11.33;;;;;18.89;68.05;101364.81;6370405;22;45503;-92
2022/04/18 08:58:26;;;;;;;;;10.33;8.00;;;;;19.01;67.81;101368.59;6369934;22;47181;-91
2022/04/18 09:00:53;;;;;;;;;8.67;7.33;;;;;19.12;67.43;101367.03;6370756;22;45448;-92
2022/04/18 09:03:18;;;;;;;;;7.67;6.67;;;;;19.20;67.62;101365.47;6399144;22;45447;-94
2022/04/18 09:05:44;;;;;;;;;9.00;7.00;;;;;19.35;68.12;101366.63;6396843;22;45272;-92
2022/04/18 09:08:10;;;;;;;;;6.00;6.00;;;;;19.52;68.20;101368.69;6370733;22;46981;-91
2022/04/18 09:10:36;;;;;;;;;10.00;9.00;;;;;19.65;67.62;101369.81;6401735;22;45689;-93
2022/04/18 09:13:03;;;;;;;;;9.00;8.00;;;;;19.84;67.77;101372.81;6368107;22;45328;-91
2022/04/18 09:15:40;;;;;;;;;9.00;8.00;;;;;20.00;67.84;101360.59;6367460;22;45448;-91
2022/04/18 09:18:20;;;;;;;;;9.33;9.33;;;;;20.13;67.19;101367.06;6369313;22;47406;-92
2022/04/18 09:20:47;;;;;;;;;6.67;6.67;;;;;20.21;66.59;101362.75;6398985;22;45315;-91
2022/04/18 09:23:20;;;;;;;;;8.00;7.00;;;;;20.33;66.30;101366.50;6369820;22;45461;-93
2022/04/18 09:25:45;;;;;;;;;5.00;5.00;;;;;20.41;65.87;101366.59;6371421;22;45229;-91
2022/04/18 09:28:11;;;;;;;;;7.00;7.00;;;;;20.54;65.26;101354.31;6372138;22;47136;-92
2022/04/18 09:30:37;;;;;;;;;6.00;6.00;;;;;20.64;65.63;101358.00;6399705;22;45354;-91
2022/04/18 09:33:08;;;;;;;;;6.33;6.33;;;;;20.79;65.88;101361.75;6368771;22;45749;-92
2022/04/18 09:35:35;;;;;;;;;5.33;5.33;;;;;20.88;65.51;101360.09;6371134;22;45303;-93
2022/04/18 09:38:06;;;;;;;;;5.00;5.00;;;;;21.01;64.88;101359.31;6371377;22;47310;-91
2022/04/18 09:40:32;;;;;;;;;6.00;6.00;;;;;21.09;64.86;101355.00;6370608;22;45336;-92
2022/04/18 09:42:58;;;;;;;;;6.00;6.00;;;;;21.23;64.25;101357.84;6400658;22;45363;-93
2022/04/18 09:45:23;;;;;;;;;6.00;6.00;;;;;21.35;64.75;101349.06;6400198;22;45271;-92
2022/04/18 09:47:56;;;;;;;;;7.67;7.67;;;;;21.60;64.69;101343.94;6369714;22;47971;-92
2022/04/18 09:53:29;;;;;;;;;8.00;7.67;;;;;22.09;64.92;101350.56;6397039;22;45317;-93
2022/04/18 09:55:56;;;;;;;;;12.00;8.00;;;;;22.24;64.21;101343.53;6366860;22;45214;-93
2022/04/18 09:58:24;;;;;;;;;7.00;7.00;;;;;22.37;64.24;101351.66;6369675;22;47040;-94
2022/04/18 10:00:49;;;;;;;;;5.67;5.67;;;;;22.47;63.11;101349.91;6369112;22;45651;-93
2022/04/18 10:03:15;;;;;;;;;5.00;5.00;;;;;22.58;63.05;101339.25;6397641;22;45255;-91
2022/04/18 10:05:41;;;;;;;;;5.33;5.33;;;;;22.65;62.86;101341.97;6398441;22;45333;-93
2022/04/18 10:08:06;;;;;;;;;5.00;5.00;;;;;22.70;62.46;101341.13;6397944;22;55323;-93
2022/04/18 10:10:35;;;;;;;;;6.00;6.00;;;;;22.75;63.04;101342.94;6369679;22;45642;-93
2022/04/18 10:13:04;;;;;;;;;8.00;6.00;;;;;22.79;62.24;101342.94;6371550;22;45360;-93
2022/04/18 10:15:30;;;;;;;;;7.00;5.67;;;;;22.79;62.26;101342.94;6369179;22;45451;-92
2022/04/18 10:17:56;;;;;;;;;4.33;4.33;;;;;22.85;62.63;101337.63;6399191;22;45373;-93
2022/04/18 10:20:45;;;;;;;;;4.67;4.33;;;;;22.98;62.49;101336.78;6370504;22;45323;-92
2022/04/18 10:23:41;;;;;;;;;7.00;6.67;;;;;23.12;61.44;101337.72;6237903;22;45665;-91
2022/04/18 10:26:27;;;;;;;;;7.00;7.00;;;;;23.24;61.66;101334.16;6210692;22;45688;-92
2022/04/18 10:28:55;;;;;;;;;10.33;9.00;;;;;23.35;62.34;101339.53;6211095;22;46916;-92
2022/04/18 10:31:27;;;;;;;;;7.67;7.67;;;;;23.45;61.82;101335.97;6241731;22;45406;-93
2022/04/18 10:33:56;;;;;;;;;10.33;10.33;;;;;23.57;62.21;101329.75;6240849;22;45531;-93
2022/04/18 10:36:32;;;;;;;;;9.00;9.00;;;;;23.66;61.90;101323.47;6237818;22;45400;-92
2022/04/18 10:39:04;;;;;;;;;11.33;8.00;;;;;23.88;61.40;101323.47;6214703;22;47168;-94
2022/04/18 10:41:40;;;;;;;;;8.33;8.33;;;;;24.07;61.12;101321.63;6239845;22;45322;-92
2022/04/18 10:44:10;;;;;;;;;8.67;8.33;;;;;24.29;61.86;101315.38;6239589;22;45400;-93
2022/04/18 10:46:55;;;;;;;;;7.33;7.33;;;;;24.65;61.44;101331.34;6238950;22;45372;-92
2022/04/18 10:49:23;;;;;;;;;7.00;7.00;;;;;24.87;61.29;101318.69;6225281;22;45516;-93
2022/04/18 10:51:51;;;;;;;;;7.00;7.00;;;;;25.14;60.64;101320.34;6238716;22;45606;-92
2022/04/18 10:54:16;;;;;;;;;7.00;7.00;;;;;25.58;60.63;101318.25;6213501;22;45299;-92
2022/04/18 10:56:56;;;;;;;;;10.33;10.00;;;;;26.55;60.18;101311.88;6210626;22;45459;-91
2022/04/18 10:59:26;;;;;;;;;13.33;11.67;;;;;27.99;60.58;101306.06;6232026;22;48241;-92
2022/04/18 11:01:57;;;;;;;;;11.33;10.67;;;;;29.29;60.40;101307.84;6399418;22;45294;-92
2022/04/18 11:04:27;;;;;;;;;11.33;10.00;;;;;30.97;60.16;101297.81;6390079;22;45342;-92
2022/04/18 11:07:04;;;;;;;;;7.00;7.00;;;;;32.21;58.39;101301.72;6367285;22;45214;-95
2022/04/18 11:09:32;;;;;;;;;6.67;6.67;;;;;33.83;56.77;101299.84;6387516;22;47365;-90
2022/04/18 11:12:10;;;;;;;;;6.33;6.00;;;;;35.83;54.62;101299.34;6394644;22;45601;-90
2022/04/18 11:14:38;;;;;;;;;4.00;4.00;;;;;37.72;53.82;101308.84;6395138;22;45334;-90
2022/04/18 11:17:05;;;;;;;;;10.67;6.00;;;;;39.17;51.87;101304.19;6394392;22;45340;-90
2022/04/18 11:19:35;;;;;;;;;5.00;4.00;;;;;39.79;48.97;101306.44;6366278;22;47586;-90
2022/04/18 11:22:01;;;;;;;;;6.00;5.67;;;;;40.35;47.29;101297.91;6396514;22;45669;-90
2022/04/18 11:24:51;;;;;;;;;6.00;6.00;;;;;40.89;46.35;101304.91;6366599;22;45736;-91
2022/04/18 11:27:20;;;;;;;;;14.33;12.00;;;;;41.51;45.38;101303.03;6374446;22;45375;-90
2022/04/18 11:29:50;;;;;;;;;4.00;4.00;;;;;41.96;43.15;101304.09;6396583;22;45372;-93
2022/04/18 11:32:17;;;;;;;;;6.00;5.00;;;;;42.68;42.49;101303.81;6364646;22;45356;-90
2022/04/18 11:34:48;;;;;;;;;4.00;4.00;;;;;43.40;41.89;101294.19;6366772;22;45397;-93
2022/04/18 11:37:39;;;;;;;;;2.33;1.33;;;;;43.82;40.21;101297.91;6396252;22;45520;-90
2022/04/18 11:40:14;;;;;;;;;4.67;4.67;;;;;43.61;38.03;101284.97;6368765;22;47353;-91
2022/04/18 11:42:41;;;;;;;;;4.33;3.33;;;;;43.18;37.73;101285.84;6376679;22;45582;-96
2022/04/18 11:45:10;;;;;;;;;4.67;2.00;;;;;42.64;38.11;101288.53;6405266;22;45196;-96
2022/04/18 11:47:47;;;;;;;;;3.00;3.00;;;;;42.62;38.93;101285.03;6374856;22;45285;-92
2022/04/18 11:50:15;;;;;;;;;2.00;2.00;;;;;43.02;36.80;101282.66;6400883;22;45398;-93
2022/04/18 11:52:41;;;;;;;;;3.00;3.00;;;;;43.33;37.92;101277.25;6369973;22;45382;-93
2022/04/18 11:55:09;;;;;;;;;5.00;5.00;;;;;43.25;36.53;101279.78;6399438;22;45283;-93
2022/04/18 11:57:37;;;;;;;;;2.00;2.00;;;;;43.15;35.78;101272.31;6368878;22;45461;-94
2022/04/18 12:00:14;;;;;;;;;2.00;2.00;;;;;43.20;35.95;101266.38;6368883;22;47092;-93
2022/04/18 12:08:12;;;;;;;;;3.00;3.00;;;;;42.55;34.38;101270.91;6396472;22;45339;-93
2022/04/18 12:10:41;;;;;;;;;5.33;4.33;;;;;42.13;35.08;101277.97;6397908;22;45230;-92
2022/04/18 12:13:11;;;;;;;;;3.00;3.00;;;;;41.91;34.96;101270.53;6396772;22;45340;-93
2022/04/18 12:15:38;;;;;;;;;4.00;4.00;;;;;41.72;34.93;101270.19;6397755;22;45519;-93
2022/04/18 12:18:11;;;;;;;;;2.67;2.67;;;;;41.49;34.92;101272.00;6368389;22;45609;-90
2022/04/18 12:20:44;;;;;;;;;4.33;4.33;;;;;41.22;35.34;101272.16;6376062;22;47891;-93
2022/04/18 12:23:19;;;;;;;;;5.33;5.00;;;;;40.83;34.67;101268.72;6367664;22;45821;-94
2022/04/18 12:25:47;;;;;;;;;10.33;8.33;;;;;40.34;34.70;101264.03;6371456;22;45342;-95
2022/04/18 12:28:13;;;;;;;;;15.33;13.00;;;;;39.90;35.03;101267.19;6373910;22;45550;-96
2022/04/18 12:31:04;;;;;;;;;13.33;12.33;;;;;39.39;35.45;101239.59;6386789;22;48374;-96
2022/04/18 12:36:04;;;;;;;;;3.33;3.33;;;;;39.40;35.42;101237.72;6361169;22;45700;-96
2022/04/18 12:38:32;;;;;;;;;2.00;2.00;;;;;39.32;35.35;101239.16;6356505;22;45631;-96
2022/04/18 12:40:58;;;;;;;;;3.67;3.67;;;;;39.23;35.18;101235.16;6351865;22;45600;-95
2022/04/18 12:43:29;;;;;;;;;2.33;2.33;;;;;39.32;35.86;101255.63;6335377;22;45267;-95
2022/04/18 12:46:01;;;;;;;;;2.33;2.00;;;;;39.33;35.78;101251.00;6306726;22;45547;-96
2022/04/18 12:48:31;;;;;;;;;3.33;3.33;;;;;39.01;34.92;101241.25;6347580;22;45313;-96
2022/04/18 12:51:02;;;;;;;;;3.00;3.00;;;;;38.58;33.74;101234.06;6319328;22;47464;-96
2022/04/18 12:53:48;;;;;;;;;2.33;2.33;;;;;38.14;34.65;101256.94;6322125;22;45286;-96
2022/04/18 12:56:21;;;;;;;;;2.00;2.00;;;;;37.60;35.02;101223.72;6317544;22;45194;-96
2022/04/18 12:59:01;;;;;;;;;2.67;2.67;;;;;37.50;34.83;101239.84;6317524;22;45592;-96
2022/04/18 13:01:36;;;;;;;;;1.67;1.67;;;;;37.57;35.11;101234.91;6317381;22;46106;-94
2022/04/18 13:04:03;;;;;;;;;2.00;2.00;;;;;37.99;35.26;101245.09;6340859;22;45446;-96
2022/04/18 13:06:33;;;;;;;;;4.33;3.00;;;;;38.45;35.17;101243.97;6313953;22;45477;-96
2022/04/18 13:09:07;;;;;;;;;3.00;2.00;;;;;38.86;34.69;101224.00;6319017;22;45535;-96
2022/04/18 13:11:43;;;;;;;;;1.00;1.00;;;;;39.13;33.74;101217.56;6342455;22;45436;-96
2022/04/18 13:14:12;;;;;;;;;3.00;3.00;;;;;39.00;33.64;101226.66;6343602;22;45317;-96
2022/04/18 13:16:39;;;;;;;;;3.00;1.67;;;;;39.03;34.08;101232.91;6309425;22;45363;-96
2022/04/18 13:19:09;;;;;;;;;2.00;1.67;;;;;38.83;33.58;101235.13;6342053;22;45274;-96
2022/04/18 13:21:35;;;;;;;;;1.33;1.33;;;;;38.21;33.89;101217.19;6339018;22;45392;-96
2022/04/18 13:24:02;;;;;;;;;2.33;2.33;;;;;37.69;33.50;101219.53;6343696;22;45556;-96
2022/04/18 13:26:29;;;;;;;;;3.33;3.00;;;;;37.26;33.79;101206.66;6313109;22;45313;-96
2022/04/18 13:28:56;;;;;;;;;4.00;2.33;;;;;36.94;34.27;101216.75;6344216;22;45107;-96
2022/04/18 13:31:21;;;;;;;;;4.00;2.67;;;;;36.54;34.18;101204.41;6317927;22;45483;-96
2022/04/18 13:33:47;;;;;;;;;4.33;3.33;;;;;36.23;34.42;101206.19;6311695;22;45220;-96
2022/04/18 13:38:57;;;;;;;;;1.00;1.00;;;;;36.16;34.35;101210.25;6343008;22;45226;-96
2022/04/18 13:41:23;;;;;;;;;1.67;1.67;;;;;36.22;34.99;101208.03;6311568;22;46155;-96
2022/04/18 13:43:49;;;;;;;;;1.00;1.00;;;;;36.41;35.17;101197.94;6337815;22;45472;-93
2022/04/18 13:46:15;;;;;;;;;4.00;2.00;;;;;36.66;34.74;101207.41;6335646;22;45415;-93